sensor_id;sensor_type;location;lat;lon;timestamp;pressure;altitude;pressure_sealevel;temperature;humidity
74633;BME280;63139;52.018;8.552;2023-02-15T00:00:27;101898.66;;;0.16;93.38
74633;BME280;63139;52.018;8.552;2023-02-15T00:02:55;101903.94;;;0.15;93.15
74633;BME280;63139;52.018;8.552;2023-02-15T00:05:23;101904.00;;;0.13;93.17
74633;BME280;63139;52.018;8.552;2023-02-15T00:07:52;101899.81;;;0.09;93.16
74633;BME280;63139;52.018;8.552;2023-02-15T00:10:20;101892.94;;;0.08;93.12
74633;BME280;63139;52.018;8.552;2023-02-15T00:12:49;101889.56;;;0.06;93.60
74633;BME280;63139;52.018;8.552;2023-02-15T00:15:19;101897.44;;;0.05;93.52
74633;BME280;63139;52.018;8.552;2023-02-15T00:17:47;101890.59;;;0.02;93.46
74633;BME280;63139;52.018;8.552;2023-02-15T00:20:16;101888.84;;;0.03;93.72
74633;BME280;63139;52.018;8.552;2023-02-15T00:22:44;101888.00;;;0.02;93.76
74633;BME280;63139;52.018;8.552;2023-02-15T00:25:14;101890.66;;;0.00;93.13
74633;BME280;63139;52.018;8.552;2023-02-15T00:27:42;101888.03;;;0.00;93.60
74633;BME280;63139;52.018;8.552;2023-02-15T00:30:11;101885.53;;;-0.01;93.58
74633;BME280;63139;52.018;8.552;2023-02-15T00:32:42;101884.69;;;-0.02;93.26
74633;BME280;63139;52.018;8.552;2023-02-15T00:35:10;101885.59;;;-0.03;93.22
74633;BME280;63139;52.018;8.552;2023-02-15T00:37:39;101876.16;;;-0.05;92.94
74633;BME280;63139;52.018;8.552;2023-02-15T00:40:09;101881.41;;;-0.07;93.01
74633;BME280;63139;52.018;8.552;2023-02-15T00:42:37;101873.69;;;-0.08;93.10
74633;BME280;63139;52.018;8.552;2023-02-15T00:45:08;101874.66;;;-0.11;93.32
74633;BME280;63139;52.018;8.552;2023-02-15T00:47:36;101879.03;;;-0.11;93.00
74633;BME280;63139;52.018;8.552;2023-02-15T00:50:07;101885.97;;;-0.12;93.32
74633;BME280;63139;52.018;8.552;2023-02-15T00:52:37;101875.69;;;-0.15;93.26
74633;BME280;63139;52.018;8.552;2023-02-15T00:55:05;101878.44;;;-0.18;93.18
74633;BME280;63139;52.018;8.552;2023-02-15T00:57:34;101880.19;;;-0.18;93.39
74633;BME280;63139;52.018;8.552;2023-02-15T01:00:03;101877.66;;;-0.20;93.30
74633;BME280;63139;52.018;8.552;2023-02-15T01:02:31;101884.56;;;-0.19;93.53
74633;BME280;63139;52.018;8.552;2023-02-15T01:05:01;101879.41;;;-0.20;93.56
74633;BME280;63139;52.018;8.552;2023-02-15T01:07:31;101880.25;;;-0.20;93.65
74633;BME280;63139;52.018;8.552;2023-02-15T01:09:59;101876.81;;;-0.20;93.31
74633;BME280;63139;52.018;8.552;2023-02-15T01:12:32;101866.34;;;-0.19;93.67
74633;BME280;63139;52.018;8.552;2023-02-15T01:15:00;101871.66;;;-0.22;93.72
74633;BME280;63139;52.018;8.552;2023-02-15T01:17:29;101862.19;;;-0.23;93.08
74633;BME280;63139;52.018;8.552;2023-02-15T01:19:57;101856.19;;;-0.25;93.41
74633;BME280;63139;52.018;8.552;2023-02-15T01:22:25;101866.72;;;-0.28;92.75
74633;BME280;63139;52.018;8.552;2023-02-15T01:24:55;101862.38;;;-0.27;93.21
74633;BME280;63139;52.018;8.552;2023-02-15T01:27:24;101858.97;;;-0.29;93.18
74633;BME280;63139;52.018;8.552;2023-02-15T01:29:52;101856.38;;;-0.29;92.89
74633;BME280;63139;52.018;8.552;2023-02-15T01:32:21;101851.38;;;-0.34;92.96
74633;BME280;63139;52.018;8.552;2023-02-15T01:34:49;101853.13;;;-0.34;92.99
74633;BME280;63139;52.018;8.552;2023-02-15T01:37:18;101852.44;;;-0.38;92.90
74633;BME280;63139;52.018;8.552;2023-02-15T01:39:46;101849.03;;;-0.40;92.97
74633;BME280;63139;52.018;8.552;2023-02-15T01:42:21;101849.16;;;-0.43;92.68
74633;BME280;63139;52.018;8.552;2023-02-15T01:44:51;101843.19;;;-0.45;92.67
74633;BME280;63139;52.018;8.552;2023-02-15T01:47:22;101839.00;;;-0.49;92.77
74633;BME280;63139;52.018;8.552;2023-02-15T01:50:03;101841.66;;;-0.51;92.79
74633;BME280;63139;52.018;8.552;2023-02-15T01:52:35;101847.84;;;-0.53;92.86
74633;BME280;63139;52.018;8.552;2023-02-15T01:55:06;101840.16;;;-0.56;92.66
74633;BME280;63139;52.018;8.552;2023-02-15T01:57:37;101842.88;;;-0.59;92.88
74633;BME280;63139;52.018;8.552;2023-02-15T02:00:06;101834.38;;;-0.63;92.61
74633;BME280;63139;52.018;8.552;2023-02-15T02:02:39;101835.28;;;-0.64;92.73
74633;BME280;63139;52.018;8.552;2023-02-15T02:05:08;101832.84;;;-0.67;92.62
74633;BME280;63139;52.018;8.552;2023-02-15T02:07:38;101838.94;;;-0.68;92.96
74633;BME280;63139;52.018;8.552;2023-02-15T02:10:11;101830.41;;;-0.71;92.83
74633;BME280;63139;52.018;8.552;2023-02-15T02:12:42;101823.56;;;-0.74;92.94
74633;BME280;63139;52.018;8.552;2023-02-15T02:15:12;101821.91;;;-0.75;92.95
74633;BME280;63139;52.018;8.552;2023-02-15T02:17:49;101822.84;;;-0.77;92.57
74633;BME280;63139;52.018;8.552;2023-02-15T02:20:42;101822.91;;;-0.79;92.83
74633;BME280;63139;52.018;8.552;2023-02-15T02:23:29;101813.41;;;-0.80;93.00
74633;BME280;63139;52.018;8.552;2023-02-15T02:35:16;101812.97;;;-0.90;92.58
74633;BME280;63139;52.018;8.552;2023-02-15T02:37:52;101804.38;;;-0.92;92.57
74633;BME280;63139;52.018;8.552;2023-02-15T02:40:34;101809.69;;;-0.95;92.95
74633;BME280;63139;52.018;8.552;2023-02-15T02:43:09;101805.41;;;-0.96;92.96
74633;BME280;63139;52.018;8.552;2023-02-15T02:45:41;101803.72;;;-0.97;92.74
74633;BME280;63139;52.018;8.552;2023-02-15T02:48:13;101800.34;;;-0.99;92.70
74633;BME280;63139;52.018;8.552;2023-02-15T02:50:43;101800.34;;;-0.99;92.91
74633;BME280;63139;52.018;8.552;2023-02-15T02:53:11;101803.84;;;-1.00;92.87
74633;BME280;63139;52.018;8.552;2023-02-15T02:55:42;101799.59;;;-1.02;92.77
74633;BME280;63139;52.018;8.552;2023-02-15T02:58:16;101797.91;;;-1.03;92.51
74633;BME280;63139;52.018;8.552;2023-02-15T03:00:49;101791.09;;;-1.06;92.71
74633;BME280;63139;52.018;8.552;2023-02-15T03:03:24;101789.41;;;-1.07;92.91
74633;BME280;63139;52.018;8.552;2023-02-15T03:05:58;101787.72;;;-1.08;92.94
74633;BME280;63139;52.018;8.552;2023-02-15T03:08:34;101784.25;;;-1.08;93.13
74633;BME280;63139;52.018;8.552;2023-02-15T03:11:03;101779.91;;;-1.08;93.23
74633;BME280;63139;52.018;8.552;2023-02-15T03:13:32;101784.22;;;-1.07;93.44
74633;BME280;63139;52.018;8.552;2023-02-15T03:16:01;101781.59;;;-1.07;93.38
74633;BME280;63139;52.018;8.552;2023-02-15T03:18:52;101781.59;;;-1.07;93.32
74633;BME280;63139;52.018;8.552;2023-02-15T03:21:32;101783.34;;;-1.07;92.99
74633;BME280;63139;52.018;8.552;2023-02-15T03:24:09;101777.44;;;-1.11;92.70
74633;BME280;63139;52.018;8.552;2023-02-15T03:26:43;101776.59;;;-1.11;93.11
74633;BME280;63139;52.018;8.552;2023-02-15T03:29:15;101783.56;;;-1.12;93.15
74633;BME280;63139;52.018;8.552;2023-02-15T03:31:46;101782.72;;;-1.12;93.04
74633;BME280;63139;52.018;8.552;2023-02-15T03:34:16;101776.66;;;-1.13;93.11
74633;BME280;63139;52.018;8.552;2023-02-15T03:36:49;101768.13;;;-1.17;92.77
74633;BME280;63139;52.018;8.552;2023-02-15T03:39:21;101775.94;;;-1.17;92.77
74633;BME280;63139;52.018;8.552;2023-02-15T03:41:58;101780.31;;;-1.19;92.86
74633;BME280;63139;52.018;8.552;2023-02-15T03:44:29;101779.50;;;-1.19;92.72
74633;BME280;63139;52.018;8.552;2023-02-15T03:47:02;101778.66;;;-1.20;92.93
74633;BME280;63139;52.018;8.552;2023-02-15T03:49:38;101775.28;;;-1.22;93.04
74633;BME280;63139;52.018;8.552;2023-02-15T03:52:09;101777.03;;;-1.22;93.07
74633;BME280;63139;52.018;8.552;2023-02-15T03:54:39;101771.94;;;-1.25;92.49
74633;BME280;63139;52.018;8.552;2023-02-15T03:57:18;101765.13;;;-1.28;92.87
74633;BME280;63139;52.018;8.552;2023-02-15T04:00:08;101765.19;;;-1.29;92.32
74633;BME280;63139;52.018;8.552;2023-02-15T04:03:09;101766.13;;;-1.32;92.53
74633;BME280;63139;52.018;8.552;2023-02-15T04:05:38;101761.00;;;-1.33;92.52
74633;BME280;63139;52.018;8.552;2023-02-15T04:08:08;101761.94;;;-1.34;92.60
74633;BME280;63139;52.018;8.552;2023-02-15T04:10:36;101765.44;;;-1.35;92.66
74633;BME280;63139;52.018;8.552;2023-02-15T04:13:18;101762.00;;;-1.36;93.08
74633;BME280;63139;52.018;8.552;2023-02-15T04:15:46;101755.03;;;-1.35;93.08
74633;BME280;63139;52.018;8.552;2023-02-15T04:18:36;101748.94;;;-1.34;93.32
74633;BME280;63139;52.018;8.552;2023-02-15T04:21:23;101751.53;;;-1.34;92.78
74633;BME280;63139;52.018;8.552;2023-02-15T04:24:11;101770.63;;;-1.35;92.69
74633;BME280;63139;52.018;8.552;2023-02-15T04:26:57;101764.63;;;-1.37;92.59
74633;BME280;63139;52.018;8.552;2023-02-15T04:29:26;101757.81;;;-1.40;92.86
74633;BME280;63139;52.018;8.552;2023-02-15T04:31:57;101763.09;;;-1.41;93.08
74633;BME280;63139;52.018;8.552;2023-02-15T04:34:25;101761.38;;;-1.42;92.72
74633;BME280;63139;52.018;8.552;2023-02-15T04:36:53;101749.34;;;-1.45;92.37
74633;BME280;63139;52.018;8.552;2023-02-15T04:39:22;101750.31;;;-1.47;92.86
74633;BME280;63139;52.018;8.552;2023-02-15T04:41:50;101745.25;;;-1.50;92.72
74633;BME280;63139;52.018;8.552;2023-02-15T04:44:18;101746.97;;;-1.49;92.82
74633;BME280;63139;52.018;8.552;2023-02-15T04:46:45;101744.41;;;-1.51;92.42
74633;BME280;63139;52.018;8.552;2023-02-15T04:49:13;101735.81;;;-1.53;92.49
74633;BME280;63139;52.018;8.552;2023-02-15T04:51:41;101738.44;;;-1.53;92.55
74633;BME280;63139;52.018;8.552;2023-02-15T04:54:09;101724.59;;;-1.53;92.52
74633;BME280;63139;52.018;8.552;2023-02-15T04:56:38;101725.50;;;-1.54;92.58
74633;BME280;63139;52.018;8.552;2023-02-15T04:59:05;101725.44;;;-1.53;92.89
74633;BME280;63139;52.018;8.552;2023-02-15T05:01:33;101726.34;;;-1.54;92.75
74633;BME280;63139;52.018;8.552;2023-02-15T05:04:01;101727.13;;;-1.52;93.05
74633;BME280;63139;52.018;8.552;2023-02-15T05:06:29;101724.66;;;-1.55;92.68
74633;BME280;63139;52.018;8.552;2023-02-15T05:08:57;101723.00;;;-1.56;92.52
74633;BME280;63139;52.018;8.552;2023-02-15T05:11:26;101718.69;;;-1.57;92.86
74633;BME280;63139;52.018;8.552;2023-02-15T05:13:55;101722.25;;;-1.60;92.92
74633;BME280;63139;52.018;8.552;2023-02-15T05:16:23;101719.69;;;-1.61;92.56
74633;BME280;63139;52.018;8.552;2023-02-15T05:18:51;101730.09;;;-1.61;92.48
74633;BME280;63139;52.018;8.552;2023-02-15T05:21:19;101721.59;;;-1.65;92.55
74633;BME280;63139;52.018;8.552;2023-02-15T05:23:47;101732.03;;;-1.66;92.41
74633;BME280;63139;52.018;8.552;2023-02-15T05:26:17;101732.03;;;-1.66;92.82
74633;BME280;63139;52.018;8.552;2023-02-15T05:29:05;101722.59;;;-1.69;92.97
74633;BME280;63139;52.018;8.552;2023-02-15T05:31:33;101729.53;;;-1.69;92.58
74633;BME280;63139;52.018;8.552;2023-02-15T05:34:02;101722.66;;;-1.70;92.76
74633;BME280;63139;52.018;8.552;2023-02-15T05:36:30;101719.25;;;-1.71;93.00
74633;BME280;63139;52.018;8.552;2023-02-15T05:38:58;101714.94;;;-1.72;92.92
74633;BME280;63139;52.018;8.552;2023-02-15T05:41:26;101723.63;;;-1.73;92.49
74633;BME280;63139;52.018;8.552;2023-02-15T05:43:55;101719.34;;;-1.74;93.15
74633;BME280;63139;52.018;8.552;2023-02-15T05:46:24;101721.94;;;-1.74;92.68
74633;BME280;63139;52.018;8.552;2023-02-15T05:48:51;101723.78;;;-1.77;92.70
74633;BME280;63139;52.018;8.552;2023-02-15T05:51:19;101720.28;;;-1.76;93.01
74633;BME280;63139;52.018;8.552;2023-02-15T05:53:47;101717.75;;;-1.78;93.04
74633;BME280;63139;52.018;8.552;2023-02-15T05:56:15;101724.72;;;-1.78;92.98
74633;BME280;63139;52.018;8.552;2023-02-15T05:58:42;101718.69;;;-1.79;92.68
74633;BME280;63139;52.018;8.552;2023-02-15T06:01:12;101723.88;;;-1.79;92.63
74633;BME280;63139;52.018;8.552;2023-02-15T06:03:41;101725.53;;;-1.78;92.68
74633;BME280;63139;52.018;8.552;2023-02-15T06:06:09;101723.09;;;-1.81;92.56
74633;BME280;63139;52.018;8.552;2023-02-15T06:08:37;101717.84;;;-1.79;92.74
74633;BME280;63139;52.018;8.552;2023-02-15T06:11:06;101716.09;;;-1.79;93.29
74633;BME280;63139;52.018;8.552;2023-02-15T06:13:34;101725.53;;;-1.78;93.03
74633;BME280;63139;52.018;8.552;2023-02-15T06:16:04;101719.44;;;-1.77;92.88
74633;BME280;63139;52.018;8.552;2023-02-15T06:18:32;101717.75;;;-1.78;93.41
74633;BME280;63139;52.018;8.552;2023-02-15T06:21:02;101709.97;;;-1.78;93.40
74633;BME280;63139;52.018;8.552;2023-02-15T06:23:30;101715.16;;;-1.78;93.04
74633;BME280;63139;52.018;8.552;2023-02-15T06:25:57;101715.16;;;-1.78;92.81
74633;BME280;63139;52.018;8.552;2023-02-15T06:28:25;101714.34;;;-1.78;93.37
74633;BME280;63139;52.018;8.552;2023-02-15T06:30:53;101715.94;;;-1.76;93.32
74633;BME280;63139;52.018;8.552;2023-02-15T06:33:22;101715.94;;;-1.76;93.12
74633;BME280;63139;52.018;8.552;2023-02-15T06:35:49;101721.16;;;-1.76;92.84
74633;BME280;63139;52.018;8.552;2023-02-15T06:38:19;101723.75;;;-1.76;92.70
74633;BME280;63139;52.018;8.552;2023-02-15T06:40:47;101728.03;;;-1.75;93.06
74633;BME280;63139;52.018;8.552;2023-02-15T06:43:15;101719.41;;;-1.75;92.76
74633;BME280;63139;52.018;8.552;2023-02-15T06:45:42;101711.56;;;-1.74;92.51
74633;BME280;63139;52.018;8.552;2023-02-15T06:48:10;101711.56;;;-1.74;92.84
74633;BME280;63139;52.018;8.552;2023-02-15T06:50:39;101711.56;;;-1.74;92.35
74633;BME280;63139;52.018;8.552;2023-02-15T06:53:07;101708.06;;;-1.73;93.01
74633;BME280;63139;52.018;8.552;2023-02-15T06:55:36;101716.56;;;-1.69;92.70
74633;BME280;63139;52.018;8.552;2023-02-15T06:58:03;101713.81;;;-1.65;92.45
74633;BME280;63139;52.018;8.552;2023-02-15T07:00:31;101714.56;;;-1.63;93.09
74633;BME280;63139;52.018;8.552;2023-02-15T07:02:59;101712.72;;;-1.59;92.75
74633;BME280;63139;52.018;8.552;2023-02-15T07:05:28;101713.38;;;-1.54;92.88
74633;BME280;63139;52.018;8.552;2023-02-15T07:07:58;101708.00;;;-1.49;92.86
74633;BME280;63139;52.018;8.552;2023-02-15T07:10:26;101710.41;;;-1.45;92.64
74633;BME280;63139;52.018;8.552;2023-02-15T07:12:55;101712.75;;;-1.39;93.07
74633;BME280;63139;52.018;8.552;2023-02-15T07:15:22;101712.59;;;-1.34;92.79
74633;BME280;63139;52.018;8.552;2023-02-15T07:17:50;101713.28;;;-1.31;92.34
74633;BME280;63139;52.018;8.552;2023-02-15T07:20:20;101708.00;;;-1.28;92.57
74633;BME280;63139;52.018;8.552;2023-02-15T07:22:49;101710.38;;;-1.23;92.35
74633;BME280;63139;52.018;8.552;2023-02-15T07:25:17;101710.28;;;-1.20;91.99
74633;BME280;63139;52.018;8.552;2023-02-15T07:27:45;101704.03;;;-1.16;91.93
74633;BME280;63139;52.018;8.552;2023-02-15T07:30:16;101709.97;;;-1.12;92.39
74633;BME280;63139;52.018;8.552;2023-02-15T07:32:45;101707.16;;;-1.08;91.75
74633;BME280;63139;52.018;8.552;2023-02-15T07:35:35;101700.94;;;-1.04;92.15
74633;BME280;63139;52.018;8.552;2023-02-15T07:38:03;101704.13;;;-0.97;92.22
74633;BME280;63139;52.018;8.552;2023-02-15T07:40:31;101705.63;;;-0.92;92.27
74633;BME280;63139;52.018;8.552;2023-02-15T07:42:58;101706.25;;;-0.87;92.14
74633;BME280;63139;52.018;8.552;2023-02-15T07:45:27;101702.56;;;-0.81;92.23
74633;BME280;63139;52.018;8.552;2023-02-15T07:47:55;101698.03;;;-0.76;92.32
74633;BME280;63139;52.018;8.552;2023-02-15T07:50:23;101702.91;;;-0.68;91.88
74633;BME280;63139;52.018;8.552;2023-02-15T07:52:51;101691.31;;;-0.61;91.93
74633;BME280;63139;52.018;8.552;2023-02-15T07:55:18;101690.13;;;-0.54;92.19
74633;BME280;63139;52.018;8.552;2023-02-15T07:57:48;101682.97;;;-0.49;91.94
74633;BME280;63139;52.018;8.552;2023-02-15T08:00:18;101682.63;;;-0.42;91.71
74633;BME280;63139;52.018;8.552;2023-02-15T08:02:52;101686.63;;;-0.34;91.83
74633;BME280;63139;52.018;8.552;2023-02-15T08:05:34;101681.03;;;-0.25;91.58
74633;BME280;63139;52.018;8.552;2023-02-15T08:08:02;101671.06;;;-0.16;92.09
74633;BME280;63139;52.018;8.552;2023-02-15T08:10:30;101675.97;;;-0.10;92.03
74633;BME280;63139;52.018;8.552;2023-02-15T08:13:16;101677.31;;;-0.01;91.91
74633;BME280;63139;52.018;8.552;2023-02-15T08:15:48;101670.97;;;0.05;91.67
74633;BME280;63139;52.018;8.552;2023-02-15T08:18:17;101666.38;;;0.10;91.48
74633;BME280;63139;52.018;8.552;2023-02-15T08:20:49;101663.59;;;0.14;90.91
74633;BME280;63139;52.018;8.552;2023-02-15T08:23:17;101657.19;;;0.21;91.54
74633;BME280;63139;52.018;8.552;2023-02-15T08:25:45;101650.81;;;0.27;91.11
74633;BME280;63139;52.018;8.552;2023-02-15T08:28:12;101646.16;;;0.33;91.25
74633;BME280;63139;52.018;8.552;2023-02-15T08:30:40;101654.59;;;0.38;91.31
74633;BME280;63139;52.018;8.552;2023-02-15T08:33:08;101650.78;;;0.46;90.82
74633;BME280;63139;52.018;8.552;2023-02-15T08:35:37;101649.66;;;0.51;91.00
74633;BME280;63139;52.018;8.552;2023-02-15T08:38:05;101644.97;;;0.58;90.56
74633;BME280;63139;52.018;8.552;2023-02-15T08:40:33;101648.19;;;0.63;90.78
74633;BME280;63139;52.018;8.552;2023-02-15T08:43:01;101643.59;;;0.68;90.30
74633;BME280;63139;52.018;8.552;2023-02-15T08:45:29;101638.91;;;0.74;90.19
74633;BME280;63139;52.018;8.552;2023-02-15T08:47:56;101638.63;;;0.81;90.10
74633;BME280;63139;52.018;8.552;2023-02-15T08:50:24;101645.34;;;0.85;90.27
74633;BME280;63139;52.018;8.552;2023-02-15T08:52:53;101632.94;;;0.90;90.43
74633;BME280;63139;52.018;8.552;2023-02-15T08:55:21;101637.75;;;0.97;90.40
74633;BME280;63139;52.018;8.552;2023-02-15T08:57:49;101634.00;;;1.03;90.24
74633;BME280;63139;52.018;8.552;2023-02-15T09:00:18;101637.16;;;1.09;90.51
74633;BME280;63139;52.018;8.552;2023-02-15T09:02:46;101634.16;;;1.17;90.05
74633;BME280;63139;52.018;8.552;2023-02-15T09:05:13;101638.19;;;1.23;89.92
74633;BME280;63139;52.018;8.552;2023-02-15T09:07:41;101630.72;;;1.32;89.85
74633;BME280;63139;52.018;8.552;2023-02-15T09:10:10;101639.75;;;1.42;89.84
74633;BME280;63139;52.018;8.552;2023-02-15T09:12:38;101637.56;;;1.50;88.96
74633;BME280;63139;52.018;8.552;2023-02-15T09:15:07;101642.31;;;1.60;89.41
74633;BME280;63139;52.018;8.552;2023-02-15T09:17:34;101630.63;;;1.67;88.90
74633;BME280;63139;52.018;8.552;2023-02-15T09:20:03;101631.81;;;1.77;89.14
74633;BME280;63139;52.018;8.552;2023-02-15T09:22:30;101624.41;;;1.85;88.85
74633;BME280;63139;52.018;8.552;2023-02-15T09:24:58;101622.19;;;1.93;88.77
74633;BME280;63139;52.018;8.552;2023-02-15T09:27:27;101623.53;;;2.00;89.39
74633;BME280;63139;52.018;8.552;2023-02-15T09:29:56;101622.97;;;2.11;88.35
74633;BME280;63139;52.018;8.552;2023-02-15T09:32:24;101619.84;;;2.20;88.03
74633;BME280;63139;52.018;8.552;2023-02-15T09:34:52;101622.03;;;2.27;87.88
74633;BME280;63139;52.018;8.552;2023-02-15T09:37:19;101619.81;;;2.36;87.92
74633;BME280;63139;52.018;8.552;2023-02-15T09:39:47;101615.84;;;2.44;86.88
74633;BME280;63139;52.018;8.552;2023-02-15T09:42:41;101616.31;;;2.51;87.05
74633;BME280;63139;52.018;8.552;2023-02-15T09:45:26;101621.13;;;2.58;86.44
74633;BME280;63139;52.018;8.552;2023-02-15T09:48:17;101617.09;;;2.67;86.71
74633;BME280;63139;52.018;8.552;2023-02-15T09:50:59;101610.69;;;2.72;86.91
74633;BME280;63139;52.018;8.552;2023-02-15T09:53:42;101604.09;;;2.81;86.42
74633;BME280;63139;52.018;8.552;2023-02-15T09:56:19;101603.63;;;2.89;86.17
74633;BME280;63139;52.018;8.552;2023-02-15T09:58:56;101601.50;;;2.95;85.60
74633;BME280;63139;52.018;8.552;2023-02-15T10:01:33;101597.38;;;3.05;85.89
74633;BME280;63139;52.018;8.552;2023-02-15T10:04:18;101601.31;;;3.12;85.92
74633;BME280;63139;52.018;8.552;2023-02-15T10:07:00;101599.81;;;3.23;85.98
74633;BME280;63139;52.018;8.552;2023-02-15T10:09:48;101597.66;;;3.29;85.57
74633;BME280;63139;52.018;8.552;2023-02-15T10:12:32;101610.28;;;3.37;85.29
74633;BME280;63139;52.018;8.552;2023-02-15T10:15:11;101608.03;;;3.45;84.99
74633;BME280;63139;52.018;8.552;2023-02-15T10:17:48;101607.47;;;3.54;85.03
74633;BME280;63139;52.018;8.552;2023-02-15T10:20:27;101607.72;;;3.64;85.13
74633;BME280;63139;52.018;8.552;2023-02-15T10:23:09;101603.59;;;3.74;84.05
74633;BME280;63139;52.018;8.552;2023-02-15T10:25:44;101589.09;;;3.82;84.30
74633;BME280;63139;52.018;8.552;2023-02-15T10:28:17;101594.69;;;3.90;83.92
74633;BME280;63139;52.018;8.552;2023-02-15T10:30:49;101587.28;;;3.97;84.17
74633;BME280;63139;52.018;8.552;2023-02-15T10:33:30;101591.19;;;4.04;83.83
74633;BME280;63139;52.018;8.552;2023-02-15T10:36:11;101600.25;;;4.13;83.83
74633;BME280;63139;52.018;8.552;2023-02-15T10:38:47;101599.53;;;4.23;83.70
74633;BME280;63139;52.018;8.552;2023-02-15T10:41:26;101594.63;;;4.32;83.15
74633;BME280;63139;52.018;8.552;2023-02-15T10:44:13;101599.28;;;4.41;83.22
74633;BME280;63139;52.018;8.552;2023-02-15T10:46:59;101584.72;;;4.49;82.48
74633;BME280;63139;52.018;8.552;2023-02-15T10:52:30;101578.22;;;4.67;81.98
74633;BME280;63139;52.018;8.552;2023-02-15T10:55:09;101582.03;;;4.76;82.19
74633;BME280;63139;52.018;8.552;2023-02-15T10:57:48;101571.25;;;4.81;81.79
74633;BME280;63139;52.018;8.552;2023-02-15T11:00:23;101578.47;;;4.90;81.74
74633;BME280;63139;52.018;8.552;2023-02-15T11:03:11;101571.66;;;5.00;81.18
74633;BME280;63139;52.018;8.552;2023-02-15T11:05:49;101575.53;;;5.07;81.40
74633;BME280;63139;52.018;8.552;2023-02-15T11:08:25;101579.41;;;5.14;80.72
74633;BME280;63139;52.018;8.552;2023-02-15T11:10:56;101574.47;;;5.22;80.58
74633;BME280;63139;52.018;8.552;2023-02-15T11:13:31;101575.84;;;5.28;80.46
74633;BME280;63139;52.018;8.552;2023-02-15T11:16:02;101564.09;;;5.33;80.13
74633;BME280;63139;52.018;8.552;2023-02-15T11:18:36;101559.34;;;5.38;80.26
74633;BME280;63139;52.018;8.552;2023-02-15T11:21:09;101557.13;;;5.45;79.65
74633;BME280;63139;52.018;8.552;2023-02-15T11:23:42;101562.66;;;5.53;79.99
74633;BME280;63139;52.018;8.552;2023-02-15T11:26:14;101559.41;;;5.62;79.73
74633;BME280;63139;52.018;8.552;2023-02-15T11:28:47;101553.81;;;5.67;79.49
74633;BME280;63139;52.018;8.552;2023-02-15T11:31:18;101545.56;;;5.71;79.57
74633;BME280;63139;52.018;8.552;2023-02-15T11:33:51;101549.69;;;5.75;79.27
74633;BME280;63139;52.018;8.552;2023-02-15T11:36:22;101548.50;;;5.79;79.80
74633;BME280;63139;52.018;8.552;2023-02-15T11:38:56;101546.25;;;5.86;79.29
74633;BME280;63139;52.018;8.552;2023-02-15T11:41:28;101548.50;;;5.92;78.78
74633;BME280;63139;52.018;8.552;2023-02-15T11:44:00;101546.34;;;5.97;79.17
74633;BME280;63139;52.018;8.552;2023-02-15T11:46:33;101549.47;;;6.02;78.99
74633;BME280;63139;52.018;8.552;2023-02-15T11:49:22;101544.59;;;6.09;77.76
74633;BME280;63139;52.018;8.552;2023-02-15T11:51:51;101544.03;;;6.16;78.41
74633;BME280;63139;52.018;8.552;2023-02-15T11:54:21;101543.47;;;6.24;78.28
74633;BME280;63139;52.018;8.552;2023-02-15T11:56:51;101537.75;;;6.30;78.47
74633;BME280;63139;52.018;8.552;2023-02-15T11:59:27;101533.59;;;6.39;77.62
74633;BME280;63139;52.018;8.552;2023-02-15T12:01:56;101523.59;;;6.44;77.82
74633;BME280;63139;52.018;8.552;2023-02-15T12:04:29;101526.50;;;6.52;77.76
74633;BME280;63139;52.018;8.552;2023-02-15T12:07:02;101518.97;;;6.58;77.75
74633;BME280;63139;52.018;8.552;2023-02-15T12:09:34;101519.56;;;6.62;76.87
74633;BME280;63139;52.018;8.552;2023-02-15T12:12:24;101520.88;;;6.68;76.92
74633;BME280;63139;52.018;8.552;2023-02-15T12:14:54;101519.59;;;6.73;77.38
74633;BME280;63139;52.018;8.552;2023-02-15T12:17:24;101515.38;;;6.82;77.00
74633;BME280;63139;52.018;8.552;2023-02-15T12:19:56;101505.94;;;6.90;76.66
74633;BME280;63139;52.018;8.552;2023-02-15T12:22:27;101511.47;;;6.98;76.68
74633;BME280;63139;52.018;8.552;2023-02-15T12:24:59;101503.81;;;7.07;76.32
74633;BME280;63139;52.018;8.552;2023-02-15T12:27:30;101507.41;;;7.17;76.08
74633;BME280;63139;52.018;8.552;2023-02-15T12:30:00;101505.69;;;7.27;76.01
74633;BME280;63139;52.018;8.552;2023-02-15T12:32:33;101497.19;;;7.34;76.00
74633;BME280;63139;52.018;8.552;2023-02-15T12:35:09;101495.88;;;7.40;75.81
74633;BME280;63139;52.018;8.552;2023-02-15T12:37:52;101492.75;;;7.46;75.58
74633;BME280;63139;52.018;8.552;2023-02-15T12:40:23;101482.69;;;7.51;75.58
74633;BME280;63139;52.018;8.552;2023-02-15T12:42:52;101476.34;;;7.54;74.89
74633;BME280;63139;52.018;8.552;2023-02-15T12:45:23;101471.63;;;7.57;74.98
74633;BME280;63139;52.018;8.552;2023-02-15T12:48:14;101480.97;;;7.61;74.24
74633;BME280;63139;52.018;8.552;2023-02-15T12:50:45;101476.06;;;7.68;74.85
74633;BME280;63139;52.018;8.552;2023-02-15T12:53:22;101469.31;;;7.75;74.42
74633;BME280;63139;52.018;8.552;2023-02-15T12:55:59;101468.69;;;7.83;74.36
74633;BME280;63139;52.018;8.552;2023-02-15T12:58:28;101471.53;;;7.91;74.04
74633;BME280;63139;52.018;8.552;2023-02-15T13:01:15;101466.31;;;8.00;72.88
74633;BME280;63139;52.018;8.552;2023-02-15T13:03:55;101454.78;;;8.12;72.52
74633;BME280;63139;52.018;8.552;2023-02-15T13:06:25;101452.88;;;8.24;73.39
74633;BME280;63139;52.018;8.552;2023-02-15T13:08:55;101450.47;;;8.32;73.28
74633;BME280;63139;52.018;8.552;2023-02-15T13:11:26;101455.00;;;8.41;73.10
74633;BME280;63139;52.018;8.552;2023-02-15T13:14:00;101453.63;;;8.47;72.49
74633;BME280;63139;52.018;8.552;2023-02-15T13:16:30;101451.28;;;8.53;72.30
74633;BME280;63139;52.018;8.552;2023-02-15T13:19:05;101454.25;;;8.60;71.94
74633;BME280;63139;52.018;8.552;2023-02-15T13:21:36;101456.09;;;8.69;71.70
74633;BME280;63139;52.018;8.552;2023-02-15T13:24:15;101446.69;;;8.76;71.70
74633;BME280;63139;52.018;8.552;2023-02-15T13:26:45;101443.38;;;8.84;71.89
74633;BME280;63139;52.018;8.552;2023-02-15T13:29:17;101438.28;;;8.92;71.50
74633;BME280;63139;52.018;8.552;2023-02-15T13:31:49;101429.69;;;9.00;71.20